Portada
METAR-TAF:

METAR-TAF

Aeroports :

Bangkok, Tailàndia

latitud: 13-54-45N, longitud: 100-36-24E, altitud: 4 m

Observació

L'informe es va fer fa 19 minuts, a les 05:00 UTC
Vent 6 kt amb direcció variable
Temperatura 28°C
Humitat 79%
Pressió 1010 hPa
Visibilitat: 9000 m
Núvols disperses a una alçada de 2000 ft
Cel ennuvolat a una alçada de 3000 ft

METAR: VTBD 200500Z VRB06KT 9000 SCT020 BKN030 28/24 Q1010 NOSIG

Hora: 12:19 (05:19 UTC)

Pronòstic

L'informe es va fer fa 6 hores i 19 minuts, a les 23:00 UTC
Pronòstic vàlid del 20 a les 00 UTC al 21 a les 06 UTC
Vent 5 kt del Nord
Visibilitat: 9000 m
Escasses núvols a una alçada de 2000 ft
Núvols disperses a una alçada de 10000 ft

TAF: VTBD 192300Z 2000/2106 36005KT 9000 FEW020 SCT100

Observacions i pronòstics meteorològics de més de 4000 aeroports (METAR i TAF).

Les estacions disponibles són els punts grocs i vermells al mapa.

Posi el ratolí al punt desitjat per veure el nom de l'estació.

Feu clic per veure les observacions i els pronòstics meteorològics.

Per canviar el mapa: feu clic els botons verds amb una creu de color negre per apropar; al botó verd amb un guió per allunyar la imatge; o en les fletxes verdes per a mapes adjacents.


METAR-TAF: